<?xml version="1.0" encoding="UTF-8" standalone="no" ?>
<gpx xmlns="http://www.topografix.com/GPX/1/1" xmlns:xsi="http://www.w3.org/2001/XMLSchema-instance" xsi:schemaLocation="http://www.topografix.com/GPX/1/1 http://www.topografix.com/GPX/1/1/gpx.xsd" version="1.1" creator="VisuGPX - https://www.visugpx.com">
  <metadata>
    <name>Etang de Péronne - la Maison Bourgeoise</name>
  </metadata>
  <trk>
    <name><![CDATA[Etang de Péronne - la Maison Bourgeoise_1]]></name>
    <extensions>
      <line xmlns="http://www.topografix.com/GPX/gpx_style/0/2">
        <color>0000FF</color>
        <width>4</width>
      </line>
    </extensions>
    <trkseg>
      <trkpt lat="47.0723" lon="-0.7125">
        <ele>162</ele>
        <time>2023-06-06T06:10:28Z</time>
      </trkpt>
      <trkpt lat="47.07313" lon="-0.71192">
        <ele>161</ele>
        <time>2023-06-06T06:12:31Z</time>
      </trkpt>
      <trkpt lat="47.07513" lon="-0.71138">
        <ele>161</ele>
        <time>2023-06-06T06:17:02Z</time>
      </trkpt>
      <trkpt lat="47.07538" lon="-0.70952">
        <ele>161</ele>
        <time>2023-06-06T06:19:54Z</time>
      </trkpt>
      <trkpt lat="47.07647" lon="-0.70904">
        <ele>162</ele>
        <time>2023-06-06T06:22:26Z</time>
      </trkpt>
      <trkpt lat="47.07654" lon="-0.70766">
        <ele>162</ele>
        <time>2023-06-06T06:24:32Z</time>
      </trkpt>
      <trkpt lat="47.07719" lon="-0.70548">
        <ele>161</ele>
        <time>2023-06-06T06:28:08Z</time>
      </trkpt>
      <trkpt lat="47.07872" lon="-0.71351">
        <ele>172</ele>
        <time>2023-06-06T06:40:46Z</time>
      </trkpt>
      <trkpt lat="47.07948" lon="-0.72165">
        <ele>183</ele>
        <time>2023-06-06T06:53:13Z</time>
      </trkpt>
      <trkpt lat="47.08387" lon="-0.72878">
        <ele>190</ele>
        <time>2023-06-06T07:07:46Z</time>
      </trkpt>
      <trkpt lat="47.08432" lon="-0.73123">
        <ele>190</ele>
        <time>2023-06-06T07:11:37Z</time>
      </trkpt>
      <trkpt lat="47.08786" lon="-0.73231">
        <ele>195</ele>
        <time>2023-06-06T07:19:39Z</time>
      </trkpt>
      <trkpt lat="47.08851" lon="-0.73168">
        <ele>194</ele>
        <time>2023-06-06T07:21:23Z</time>
      </trkpt>
      <trkpt lat="47.09176" lon="-0.73117">
        <ele>182.7</ele>
      </trkpt>
      <trkpt lat="47.09165" lon="-0.73252">
        <ele>183.1</ele>
      </trkpt>
      <trkpt lat="47.09176" lon="-0.73394">
        <ele>183.8</ele>
      </trkpt>
      <trkpt lat="47.09191" lon="-0.73465">
        <ele>185.1</ele>
      </trkpt>
      <trkpt lat="47.09222" lon="-0.7352">
        <ele>185</ele>
      </trkpt>
      <trkpt lat="47.09182" lon="-0.73581">
        <ele>190</ele>
        <time>2023-06-06T08:05:38Z</time>
      </trkpt>
      <trkpt lat="47.09156" lon="-0.73622">
        <ele>190</ele>
        <time>2023-06-06T08:06:29Z</time>
      </trkpt>
      <trkpt lat="47.09132" lon="-0.73663">
        <ele>190</ele>
        <time>2023-06-06T08:07:18Z</time>
      </trkpt>
      <trkpt lat="47.09092" lon="-0.73772">
        <ele>191</ele>
        <time>2023-06-06T08:09:11Z</time>
      </trkpt>
      <trkpt lat="47.09066" lon="-0.73831">
        <ele>192</ele>
        <time>2023-06-06T08:10:14Z</time>
      </trkpt>
      <trkpt lat="47.08997" lon="-0.73872">
        <ele>194</ele>
        <time>2023-06-06T08:11:54Z</time>
      </trkpt>
      <trkpt lat="47.08916" lon="-0.7391">
        <ele>193</ele>
        <time>2023-06-06T08:13:47Z</time>
      </trkpt>
      <trkpt lat="47.08851" lon="-0.73928">
        <ele>191</ele>
        <time>2023-06-06T08:15:15Z</time>
      </trkpt>
      <trkpt lat="47.08783" lon="-0.73964">
        <ele>185</ele>
        <time>2023-06-06T08:16:52Z</time>
      </trkpt>
      <trkpt lat="47.08431" lon="-0.73995">
        <ele>185</ele>
        <time>2023-06-06T08:24:43Z</time>
      </trkpt>
      <trkpt lat="47.08474" lon="-0.74179">
        <ele>183</ele>
        <time>2023-06-06T08:27:39Z</time>
      </trkpt>
      <trkpt lat="47.08451" lon="-0.74219">
        <ele>184</ele>
        <time>2023-06-06T08:28:27Z</time>
      </trkpt>
      <trkpt lat="47.0839" lon="-0.74257">
        <ele>185</ele>
        <time>2023-06-06T08:29:55Z</time>
      </trkpt>
      <trkpt lat="47.08348" lon="-0.7432">
        <ele>185</ele>
        <time>2023-06-06T08:31:15Z</time>
      </trkpt>
      <trkpt lat="47.08265" lon="-0.74556">
        <ele>178</ele>
        <time>2023-06-06T08:35:17Z</time>
      </trkpt>
      <trkpt lat="47.08187" lon="-0.74323">
        <ele>178</ele>
        <time>2023-06-06T08:39:13Z</time>
      </trkpt>
      <trkpt lat="47.08137" lon="-0.74248">
        <ele>176</ele>
        <time>2023-06-06T08:40:48Z</time>
      </trkpt>
      <trkpt lat="47.08113" lon="-0.7419">
        <ele>174</ele>
        <time>2023-06-06T08:41:50Z</time>
      </trkpt>
      <trkpt lat="47.08053" lon="-0.74056">
        <ele>173</ele>
        <time>2023-06-06T08:44:15Z</time>
      </trkpt>
      <trkpt lat="47.08007" lon="-0.73995">
        <ele>173</ele>
        <time>2023-06-06T08:45:38Z</time>
      </trkpt>
      <trkpt lat="47.07908" lon="-0.73898">
        <ele>175</ele>
        <time>2023-06-06T08:48:17Z</time>
      </trkpt>
      <trkpt lat="47.07854" lon="-0.73832">
        <ele>175</ele>
        <time>2023-06-06T08:49:51Z</time>
      </trkpt>
      <trkpt lat="47.07631" lon="-0.73424">
        <ele>183</ele>
        <time>2023-06-06T08:57:46Z</time>
      </trkpt>
      <trkpt lat="47.07169" lon="-0.72841">
        <ele>164</ele>
        <time>2023-06-06T09:11:19Z</time>
      </trkpt>
      <trkpt lat="47.07155" lon="-0.72607">
        <ele>166</ele>
        <time>2023-06-06T09:14:53Z</time>
      </trkpt>
      <trkpt lat="47.07158" lon="-0.72501">
        <ele>166</ele>
        <time>2023-06-06T09:16:29Z</time>
      </trkpt>
      <trkpt lat="47.07169" lon="-0.72381">
        <ele>164</ele>
        <time>2023-06-06T09:18:19Z</time>
      </trkpt>
      <trkpt lat="47.07155" lon="-0.72303">
        <ele>162</ele>
        <time>2023-06-06T09:19:32Z</time>
      </trkpt>
      <trkpt lat="47.07222" lon="-0.72281">
        <ele>167</ele>
        <time>2023-06-06T09:21:04Z</time>
      </trkpt>
      <trkpt lat="47.0716" lon="-0.71848">
        <ele>161</ele>
        <time>2023-06-06T09:27:46Z</time>
      </trkpt>
      <trkpt lat="47.07177" lon="-0.71544">
        <ele>160</ele>
        <time>2023-06-06T09:32:23Z</time>
      </trkpt>
      <trkpt lat="47.0723" lon="-0.7125">
        <ele>162</ele>
        <time>2023-06-06T09:37:00Z</time>
      </trkpt>
    </trkseg>
  </trk>
</gpx>